createdAt,value
2017-11-03T00:00:17.897Z,0.00
2017-11-03T00:01:17.851Z,0.00
2017-11-03T00:02:17.808Z,0.00
2017-11-03T00:03:17.757Z,0.00
2017-11-03T00:04:17.744Z,0.00
2017-11-03T00:05:17.665Z,0.00
2017-11-03T00:06:17.625Z,0.00
2017-11-03T00:07:17.569Z,0.00
2017-11-03T00:08:17.533Z,0.00
2017-11-03T00:09:17.505Z,0.00
2017-11-03T00:10:17.465Z,0.00
2017-11-03T00:11:17.417Z,0.00
2017-11-03T00:12:17.357Z,0.00
2017-11-03T00:13:17.303Z,0.00
2017-11-03T00:14:17.264Z,0.00
2017-11-03T00:15:17.210Z,0.00
2017-11-03T00:16:17.171Z,0.00
2017-11-03T00:17:17.127Z,0.00
2017-11-03T00:18:17.085Z,0.00
2017-11-03T00:19:17.030Z,0.00
2017-11-03T00:20:16.992Z,0.00
2017-11-03T00:21:16.941Z,0.00
2017-11-03T00:22:16.901Z,0.00
2017-11-03T00:23:16.851Z,0.00
2017-11-03T00:24:16.812Z,0.00
2017-11-03T00:25:16.771Z,0.00
2017-11-03T00:26:16.737Z,0.00
2017-11-03T00:27:16.695Z,0.00
2017-11-03T00:28:16.631Z,0.00
2017-11-03T00:29:16.585Z,0.00
2017-11-03T00:30:16.535Z,0.00
2017-11-03T00:31:16.506Z,0.00
2017-11-03T00:32:16.446Z,0.00
2017-11-03T00:33:16.400Z,0.00
2017-11-03T00:34:16.345Z,0.00
2017-11-03T00:35:16.307Z,0.00
2017-11-03T00:36:16.263Z,0.00
2017-11-03T00:37:16.215Z,0.00
2017-11-03T00:38:16.170Z,0.00
2017-11-03T00:39:16.125Z,0.00
2017-11-03T00:40:16.091Z,0.00
2017-11-03T00:41:16.036Z,0.00
2017-11-03T00:42:15.978Z,0.00
2017-11-03T00:43:15.943Z,0.00
2017-11-03T00:44:15.974Z,0.00
2017-11-03T00:45:15.851Z,0.00
2017-11-03T00:46:15.810Z,0.00
2017-11-03T00:47:15.822Z,0.00
2017-11-03T00:48:15.769Z,0.00
2017-11-03T00:49:15.668Z,0.00
2017-11-03T00:50:15.648Z,0.00
2017-11-03T00:51:15.594Z,0.00
2017-11-03T00:52:15.533Z,0.00
2017-11-03T00:53:15.474Z,0.00
2017-11-03T00:54:15.437Z,0.00
2017-11-03T00:55:15.401Z,0.00
2017-11-03T00:56:15.339Z,0.00
2017-11-03T00:57:15.292Z,0.00
2017-11-03T00:58:15.248Z,0.00
2017-11-03T00:59:15.221Z,0.00
2017-11-03T01:00:15.159Z,0.00
2017-11-03T01:01:15.114Z,0.00
2017-11-03T01:02:15.072Z,0.00
2017-11-03T01:03:15.017Z,0.00
2017-11-03T01:04:14.976Z,0.00
2017-11-03T01:05:14.997Z,0.00
2017-11-03T01:06:14.900Z,0.00
2017-11-03T01:07:14.841Z,0.00
2017-11-03T01:08:14.799Z,0.00
2017-11-03T01:09:14.749Z,0.00
2017-11-03T01:10:14.783Z,0.00
2017-11-03T01:11:14.655Z,0.00
2017-11-03T01:12:14.625Z,0.00
2017-11-03T01:13:14.633Z,0.00
2017-11-03T01:14:14.519Z,0.00
2017-11-03T01:15:14.488Z,0.00
2017-11-03T01:16:14.516Z,0.00
2017-11-03T01:17:14.378Z,0.00
2017-11-03T01:18:14.331Z,0.00
2017-11-03T01:19:14.292Z,0.00
2017-11-03T01:20:14.246Z,0.00
2017-11-03T01:21:14.243Z,0.00
2017-11-03T01:22:14.154Z,0.00
2017-11-03T01:23:14.114Z,0.00
2017-11-03T01:24:14.056Z,0.00
2017-11-03T01:25:14.040Z,0.00
2017-11-03T01:26:13.968Z,0.00
2017-11-03T01:27:13.925Z,0.00
2017-11-03T01:28:13.880Z,0.00
2017-11-03T01:29:13.852Z,0.00
2017-11-03T01:30:13.786Z,0.00
2017-11-03T01:31:13.775Z,0.00
2017-11-03T01:32:13.691Z,0.00
2017-11-03T01:33:13.644Z,0.00
2017-11-03T01:34:13.603Z,0.00
2017-11-03T01:35:13.554Z,0.00
2017-11-03T01:36:13.516Z,0.00
2017-11-03T01:37:13.452Z,0.00
2017-11-03T01:38:13.499Z,0.00
2017-11-03T01:39:13.375Z,0.00
2017-11-03T01:40:13.324Z,0.00
2017-11-03T01:41:13.276Z,0.00
2017-11-03T01:42:13.234Z,0.00
2017-11-03T01:43:13.182Z,0.00
2017-11-03T01:44:13.147Z,0.00
2017-11-03T01:45:13.103Z,0.00
2017-11-03T01:46:13.048Z,0.00
2017-11-03T01:47:13.002Z,0.00
2017-11-03T01:48:12.971Z,0.00
2017-11-03T01:49:12.916Z,0.00
2017-11-03T01:50:12.876Z,0.00
2017-11-03T01:51:12.809Z,0.00
2017-11-03T01:52:13.612Z,0.00
2017-11-03T01:53:12.742Z,0.00
2017-11-03T01:54:12.671Z,0.00
2017-11-03T01:55:12.654Z,0.00
2017-11-03T01:56:12.584Z,0.00
2017-11-03T01:57:12.534Z,0.00
2017-11-03T01:58:12.515Z,0.00
2017-11-03T01:59:12.437Z,0.00
2017-11-03T02:00:12.407Z,0.00
2017-11-03T02:01:12.357Z,0.00
2017-11-03T02:02:12.301Z,0.00
2017-11-03T02:03:12.253Z,0.00
2017-11-03T02:04:12.218Z,0.00
2017-11-03T02:05:12.165Z,0.00
2017-11-03T02:06:12.110Z,0.00
2017-11-03T02:07:12.077Z,0.00
2017-11-03T02:08:12.030Z,0.00
2017-11-03T02:09:12.037Z,0.00
2017-11-03T02:10:11.929Z,0.00
2017-11-03T02:11:11.898Z,0.00
2017-11-03T02:13:45.782Z,0.00
2017-11-03T02:14:46.139Z,0.00
2017-11-03T02:16:43.053Z,0.00
2017-11-03T02:17:42.175Z,0.00
2017-11-03T02:19:36.798Z,0.00
2017-11-03T02:20:36.737Z,0.00
2017-11-03T02:22:51.650Z,0.00
2017-11-03T02:24:23.039Z,0.00
2017-11-03T02:25:22.984Z,0.00
2017-11-03T02:27:18.180Z,0.00
2017-11-03T02:28:17.580Z,0.00
2017-11-03T02:30:10.792Z,0.00
2017-11-03T02:31:11.275Z,0.00
2017-11-03T02:33:04.654Z,0.00
2017-11-03T02:34:04.818Z,0.00
2017-11-03T02:36:00.383Z,0.00
2017-11-03T02:37:00.358Z,0.00
2017-11-03T02:38:54.893Z,0.00
2017-11-03T02:39:54.850Z,0.00
2017-11-03T02:41:48.087Z,0.00
2017-11-03T02:42:47.964Z,0.00
2017-11-03T02:44:41.328Z,0.00
2017-11-03T02:45:41.202Z,0.00
2017-11-03T02:47:35.979Z,0.00
2017-11-03T02:48:35.887Z,0.00
2017-11-03T02:50:34.104Z,0.00
2017-11-03T02:51:33.972Z,0.00
2017-11-03T02:53:27.099Z,0.00
2017-11-03T02:54:27.016Z,0.00
2017-11-03T02:56:20.185Z,0.00
2017-11-03T02:57:20.131Z,0.00
2017-11-03T02:59:13.265Z,0.00
2017-11-03T03:00:13.730Z,0.00
2017-11-03T03:02:06.848Z,0.00
2017-11-03T03:03:06.687Z,0.00
2017-11-03T03:05:02.759Z,0.00
2017-11-03T03:06:02.797Z,0.00
2017-11-03T03:07:58.961Z,0.00
2017-11-03T03:08:58.784Z,0.00
2017-11-03T03:10:53.383Z,0.00
2017-11-03T03:11:53.270Z,0.00
2017-11-03T03:13:46.963Z,0.00
2017-11-03T03:14:46.358Z,0.00
2017-11-03T03:16:39.479Z,0.00
2017-11-03T03:17:39.390Z,0.00
2017-11-03T03:19:33.277Z,0.00
2017-11-03T03:20:32.980Z,0.00
2017-11-03T03:22:27.592Z,0.00
2017-11-03T03:23:27.576Z,0.00
2017-11-03T03:25:20.751Z,0.00
2017-11-03T03:26:20.599Z,0.00
2017-11-03T03:28:13.713Z,0.00
2017-11-03T03:29:13.627Z,0.00
2017-11-03T03:31:07.096Z,0.00
2017-11-03T03:32:06.741Z,0.00
2017-11-03T03:33:59.854Z,0.00
2017-11-03T03:34:59.751Z,0.00
2017-11-03T03:36:52.964Z,0.00
2017-11-03T03:37:52.878Z,0.00
2017-11-03T03:39:45.947Z,0.00
2017-11-03T03:40:45.949Z,0.00
2017-11-03T03:42:39.537Z,0.00
2017-11-03T03:43:39.462Z,0.00
2017-11-03T03:45:44.810Z,0.00
2017-11-03T03:46:44.732Z,0.00
2017-11-03T03:48:38.344Z,0.00
2017-11-03T03:49:38.307Z,0.00
2017-11-03T03:51:31.433Z,0.00
2017-11-03T03:52:31.854Z,0.00
2017-11-03T03:54:24.428Z,0.00
2017-11-03T03:55:24.369Z,0.00
2017-11-03T03:57:17.483Z,0.00
2017-11-03T03:58:17.998Z,0.00
2017-11-03T04:00:10.620Z,0.00
2017-11-03T04:01:10.554Z,0.00
2017-11-03T04:03:03.909Z,0.00
2017-11-03T04:04:03.597Z,0.00
2017-11-03T04:05:58.258Z,0.00
2017-11-03T04:06:58.147Z,0.00
2017-11-03T04:07:58.143Z,0.00
2017-11-03T04:08:58.087Z,0.00
2017-11-03T04:09:58.079Z,0.00
2017-11-03T04:10:57.941Z,0.00
2017-11-03T04:11:58.923Z,0.00
2017-11-03T04:12:57.912Z,0.00
2017-11-03T04:13:58.404Z,0.00
2017-11-03T04:14:57.796Z,0.00
2017-11-03T04:15:57.795Z,0.00
2017-11-03T04:16:57.673Z,0.00
2017-11-03T04:17:57.692Z,0.00
2017-11-03T04:18:57.659Z,0.00
2017-11-03T04:19:57.583Z,0.00
2017-11-03T04:20:57.563Z,0.00
2017-11-03T04:21:57.521Z,0.00
2017-11-03T04:22:57.411Z,0.00
2017-11-03T04:23:57.418Z,0.00
2017-11-03T04:24:57.334Z,0.00
2017-11-03T04:25:57.321Z,0.00
2017-11-03T04:26:57.312Z,0.00
2017-11-03T04:27:57.210Z,0.00
2017-11-03T04:28:57.182Z,0.00
2017-11-03T04:29:57.896Z,0.00
2017-11-03T04:30:57.123Z,0.00
2017-11-03T04:31:57.061Z,0.00
2017-11-03T04:32:57.005Z,0.00
2017-11-03T04:33:57.426Z,0.00
2017-11-03T04:34:56.899Z,0.00
2017-11-03T04:35:56.873Z,0.00
2017-11-03T04:36:58.468Z,0.00
2017-11-03T04:37:56.615Z,0.00
2017-11-03T04:38:56.753Z,0.00
2017-11-03T04:39:56.667Z,0.00
2017-11-03T04:40:56.641Z,0.00
2017-11-03T04:41:56.616Z,0.00
2017-11-03T04:42:56.538Z,0.00
2017-11-03T04:43:56.543Z,0.00
2017-11-03T04:44:56.978Z,0.00
2017-11-03T04:45:56.397Z,0.00
2017-11-03T04:46:56.419Z,0.00
2017-11-03T04:47:56.055Z,0.00
2017-11-03T04:48:55.875Z,0.00
2017-11-03T04:49:55.845Z,0.00
2017-11-03T04:50:55.764Z,0.00
2017-11-03T04:51:55.725Z,0.00
2017-11-03T04:52:55.660Z,0.00
2017-11-03T04:53:55.633Z,0.00
2017-11-03T04:54:55.567Z,0.00
2017-11-03T04:55:55.513Z,0.00
2017-11-03T04:56:55.517Z,0.00
2017-11-03T04:57:55.436Z,0.00
2017-11-03T04:58:55.422Z,0.00
2017-11-03T04:59:55.363Z,0.00
2017-11-03T05:00:55.342Z,0.00
2017-11-03T05:01:55.256Z,0.00
2017-11-03T05:02:55.253Z,0.00
2017-11-03T05:03:55.197Z,0.00
2017-11-03T05:04:55.153Z,0.00
2017-11-03T05:05:55.092Z,0.00
2017-11-03T05:06:55.049Z,0.00
2017-11-03T05:07:55.010Z,0.00
2017-11-03T05:08:54.953Z,0.00
2017-11-03T05:09:54.898Z,0.00
2017-11-03T05:10:54.872Z,0.00
2017-11-03T05:11:54.830Z,0.00
2017-11-03T05:12:54.796Z,0.00
2017-11-03T05:13:54.733Z,0.00
2017-11-03T05:14:54.700Z,0.00
2017-11-03T05:15:54.667Z,0.00
2017-11-03T05:16:54.644Z,0.00
2017-11-03T05:17:54.571Z,0.00
2017-11-03T05:18:54.521Z,0.00
2017-11-03T05:19:54.455Z,0.00
2017-11-03T05:20:54.417Z,0.00
2017-11-03T05:21:54.396Z,0.00
2017-11-03T05:22:54.347Z,0.00
2017-11-03T05:23:54.976Z,0.00
2017-11-03T05:24:54.270Z,0.00
2017-11-03T05:25:54.212Z,0.00
2017-11-03T05:26:54.181Z,0.00
2017-11-03T05:27:54.144Z,0.00
2017-11-03T05:28:54.084Z,0.00
2017-11-03T05:29:54.024Z,0.00
2017-11-03T05:30:53.988Z,0.00
2017-11-03T05:31:53.958Z,0.00
2017-11-03T05:32:53.897Z,0.00
2017-11-03T05:33:56.558Z,0.00
2017-11-03T05:34:53.816Z,0.00
2017-11-03T05:35:53.758Z,0.00
2017-11-03T05:36:53.725Z,0.00
2017-11-03T05:37:53.688Z,0.00
2017-11-03T05:38:53.649Z,0.00
2017-11-03T05:39:53.657Z,0.00
2017-11-03T05:40:53.566Z,0.00
2017-11-03T05:41:53.545Z,0.00
2017-11-03T05:42:53.483Z,0.00
2017-11-03T05:43:53.439Z,0.00
2017-11-03T05:44:53.386Z,0.00
2017-11-03T05:45:53.379Z,0.00
2017-11-03T05:46:53.308Z,0.00
2017-11-03T05:47:53.263Z,0.00
2017-11-03T05:48:53.230Z,0.00
2017-11-03T05:49:53.184Z,0.00
2017-11-03T05:50:53.161Z,0.00
2017-11-03T05:51:53.110Z,0.00
2017-11-03T05:52:53.082Z,0.00
2017-11-03T05:53:53.030Z,0.00
2017-11-03T05:54:52.957Z,0.00
2017-11-03T05:55:52.951Z,0.00
2017-11-03T05:56:52.901Z,0.00
2017-11-03T05:57:52.863Z,0.00
2017-11-03T05:58:52.788Z,5.63
2017-11-03T05:59:52.763Z,5.63
2017-11-03T06:00:52.685Z,5.63
2017-11-03T06:01:52.656Z,5.63
2017-11-03T06:02:52.599Z,5.63
2017-11-03T06:03:52.580Z,5.63
2017-11-03T06:04:52.525Z,5.63
2017-11-03T06:05:52.493Z,11.25
2017-11-03T06:06:52.477Z,11.25
2017-11-03T06:07:52.405Z,11.25
2017-11-03T06:08:52.409Z,11.25
2017-11-03T06:09:52.354Z,16.88
2017-11-03T06:10:52.294Z,16.88
2017-11-03T06:11:52.223Z,16.88
2017-11-03T06:12:52.161Z,16.88
2017-11-03T06:13:52.138Z,22.50
2017-11-03T06:14:52.091Z,22.50
2017-11-03T06:15:52.030Z,22.50
2017-11-03T06:16:52.012Z,28.13
2017-11-03T06:17:51.960Z,28.13
2017-11-03T06:18:51.935Z,33.75
2017-11-03T06:19:51.860Z,33.75
2017-11-03T06:20:51.828Z,33.75
2017-11-03T06:21:51.776Z,39.38
2017-11-03T06:22:51.759Z,39.38
2017-11-03T06:23:52.499Z,45.00
2017-11-03T06:24:51.660Z,45.00
2017-11-03T06:25:51.608Z,50.63
2017-11-03T06:26:51.625Z,50.63
2017-11-03T06:27:51.517Z,56.25
2017-11-03T06:28:51.492Z,61.88
2017-11-03T06:29:51.434Z,61.88
2017-11-03T06:30:51.392Z,67.50
2017-11-03T06:31:51.370Z,67.50
2017-11-03T06:32:51.333Z,73.13
2017-11-03T06:33:51.270Z,78.75
2017-11-03T06:34:51.236Z,84.38
2017-11-03T06:35:51.160Z,84.38
2017-11-03T06:36:51.133Z,90.00
2017-11-03T06:37:51.080Z,90.00
2017-11-03T06:38:51.050Z,95.63
2017-11-03T06:39:51.024Z,95.63
2017-11-03T06:40:50.976Z,101.25
2017-11-03T06:41:50.915Z,106.88
2017-11-03T06:42:50.880Z,112.50
2017-11-03T06:43:50.828Z,118.13
2017-11-03T06:44:50.782Z,129.38
2017-11-03T06:45:50.737Z,135.00
2017-11-03T06:46:50.712Z,140.63
2017-11-03T06:47:50.751Z,146.25
2017-11-03T06:48:50.624Z,151.88
2017-11-03T06:49:50.570Z,151.88
2017-11-03T06:50:51.481Z,157.50
2017-11-03T06:51:50.495Z,163.13
2017-11-03T06:52:50.484Z,174.38
2017-11-03T06:53:50.415Z,180.00
2017-11-03T06:54:50.386Z,196.88
2017-11-03T06:55:50.320Z,208.13
2017-11-03T06:56:50.325Z,225.00
2017-11-03T06:57:50.326Z,241.88
2017-11-03T06:58:50.199Z,253.13
2017-11-03T06:59:50.153Z,264.38
2017-11-03T07:00:50.109Z,275.63
2017-11-03T07:01:50.080Z,281.25
2017-11-03T07:02:50.006Z,286.88
2017-11-03T07:03:49.984Z,292.50
2017-11-03T07:04:49.920Z,298.13
2017-11-03T07:05:49.890Z,303.75
2017-11-03T07:06:49.864Z,309.38
2017-11-03T07:07:49.818Z,315.00
2017-11-03T07:08:49.762Z,331.88
2017-11-03T07:09:49.714Z,343.13
2017-11-03T07:10:49.669Z,360.00
2017-11-03T07:11:49.628Z,371.25
2017-11-03T07:12:49.593Z,382.50
2017-11-03T07:13:49.554Z,388.13
2017-11-03T07:14:49.503Z,399.38
2017-11-03T07:15:49.454Z,410.63
2017-11-03T07:16:49.415Z,410.63
2017-11-03T07:17:49.368Z,410.63
2017-11-03T07:18:49.319Z,410.63
2017-11-03T07:19:49.284Z,405.00
2017-11-03T07:20:49.237Z,399.38
2017-11-03T07:21:49.191Z,388.13
2017-11-03T07:22:49.149Z,388.13
2017-11-03T07:23:49.118Z,382.50
2017-11-03T07:24:49.077Z,382.50
2017-11-03T07:25:49.030Z,382.50
2017-11-03T07:26:48.993Z,382.50
2017-11-03T07:27:48.953Z,376.88
2017-11-03T07:28:48.908Z,371.25
2017-11-03T07:29:48.880Z,365.63
2017-11-03T07:30:48.859Z,360.00
2017-11-03T07:31:48.793Z,360.00
2017-11-03T07:32:48.736Z,348.75
2017-11-03T07:33:48.719Z,348.75
2017-11-03T07:34:48.686Z,354.38
2017-11-03T07:35:48.615Z,360.00
2017-11-03T07:36:48.568Z,371.25
2017-11-03T07:37:48.559Z,388.13
2017-11-03T07:38:48.513Z,399.38
2017-11-03T07:39:48.468Z,421.88
2017-11-03T07:40:48.416Z,438.75
2017-11-03T07:41:48.360Z,455.63
2017-11-03T07:42:48.367Z,466.88
2017-11-03T07:43:48.275Z,478.13
2017-11-03T07:44:48.252Z,495.00
2017-11-03T07:45:48.234Z,511.88
2017-11-03T07:46:48.154Z,540.00
2017-11-03T07:47:48.102Z,562.50
2017-11-03T07:48:48.063Z,579.38
2017-11-03T07:49:48.033Z,585.00
2017-11-03T07:50:47.983Z,596.25
2017-11-03T07:51:47.956Z,601.88
2017-11-03T07:52:47.916Z,607.50
2017-11-03T07:53:47.883Z,613.13
2017-11-03T07:54:47.846Z,613.13
2017-11-03T07:55:47.772Z,618.75
2017-11-03T07:56:47.756Z,618.75
2017-11-03T07:57:47.687Z,618.75
2017-11-03T07:58:47.648Z,590.63
2017-11-03T07:59:47.619Z,579.38
2017-11-03T08:00:47.573Z,568.13
2017-11-03T08:01:47.531Z,579.38
2017-11-03T08:02:47.487Z,590.63
2017-11-03T08:03:47.462Z,596.25
2017-11-03T08:04:47.406Z,601.88
2017-11-03T08:05:47.357Z,607.50
2017-11-03T08:06:47.370Z,613.13
2017-11-03T08:07:47.283Z,630.00
2017-11-03T08:08:47.245Z,658.13
2017-11-03T08:09:47.206Z,691.88
2017-11-03T08:10:47.155Z,731.25
2017-11-03T08:11:47.176Z,776.25
2017-11-03T08:12:47.079Z,810.00
2017-11-03T08:13:47.035Z,832.50
2017-11-03T08:14:46.997Z,843.75
2017-11-03T08:15:46.992Z,849.38
2017-11-03T08:16:46.927Z,855.00
2017-11-03T08:17:46.870Z,855.00
2017-11-03T08:18:46.846Z,871.88
2017-11-03T08:19:46.806Z,905.63
2017-11-03T08:20:46.748Z,928.13
2017-11-03T08:21:46.716Z,922.50
2017-11-03T08:22:46.679Z,916.88
2017-11-03T08:23:46.637Z,1164.38
2017-11-03T08:24:46.597Z,1119.38
2017-11-03T08:25:46.558Z,1276.88
2017-11-03T08:26:46.520Z,1350.00
2017-11-03T08:27:46.474Z,978.75
2017-11-03T08:28:46.447Z,928.13
2017-11-03T08:29:46.397Z,1226.25
2017-11-03T08:30:46.370Z,1220.63
2017-11-03T08:31:46.365Z,1226.25
2017-11-03T08:32:46.285Z,1237.50
2017-11-03T08:33:46.271Z,1276.88
2017-11-03T08:34:46.242Z,1440.00
2017-11-03T08:35:46.210Z,1546.88
2017-11-03T08:36:46.137Z,1597.50
2017-11-03T08:37:46.101Z,1389.38
2017-11-03T08:38:46.081Z,1344.38
2017-11-03T08:39:46.039Z,1215.00
2017-11-03T08:40:45.999Z,1485.00
2017-11-03T08:41:45.952Z,1665.00
2017-11-03T08:42:45.928Z,1777.50
2017-11-03T08:43:45.882Z,1749.38
2017-11-03T08:44:45.881Z,1715.63
2017-11-03T08:45:45.874Z,1721.25
2017-11-03T08:46:45.782Z,1473.75
2017-11-03T08:47:45.786Z,1687.50
2017-11-03T08:48:45.715Z,1777.50
2017-11-03T08:49:45.697Z,1788.75
2017-11-03T08:50:45.692Z,1839.38
2017-11-03T08:51:45.624Z,1895.63
2017-11-03T08:52:45.612Z,1878.75
2017-11-03T08:53:45.566Z,1788.75
2017-11-03T08:54:45.533Z,1755.00
2017-11-03T08:55:45.514Z,1940.63
2017-11-03T08:56:45.472Z,1918.13
2017-11-03T08:57:45.449Z,1929.38
2017-11-03T08:58:45.420Z,1996.88
2017-11-03T08:59:45.378Z,1935.00
2017-11-03T09:00:45.351Z,1839.38
2017-11-03T09:01:45.370Z,1856.25
2017-11-03T09:02:45.302Z,1980.00
2017-11-03T09:03:45.264Z,2064.38
2017-11-03T09:04:45.279Z,1974.38
2017-11-03T09:05:45.211Z,1991.25
2017-11-03T09:06:45.178Z,2041.88
2017-11-03T09:07:46.016Z,2008.13
2017-11-03T09:08:45.118Z,1856.25
2017-11-03T09:09:45.103Z,1800.00
2017-11-03T09:10:45.069Z,1783.13
2017-11-03T09:11:45.030Z,1575.00
2017-11-03T09:12:45.020Z,1631.25
2017-11-03T09:13:45.034Z,1788.75
2017-11-03T09:14:44.959Z,1794.38
2017-11-03T09:15:44.974Z,1749.38
2017-11-03T09:16:44.922Z,1783.13
2017-11-03T09:17:44.920Z,2058.75
2017-11-03T09:18:44.867Z,2075.63
2017-11-03T09:19:44.885Z,2143.13
2017-11-03T09:20:44.816Z,2131.88
2017-11-03T09:21:44.840Z,2154.38
2017-11-03T09:22:44.847Z,2070.00
2017-11-03T09:23:44.820Z,1951.88
2017-11-03T09:24:44.829Z,2238.75
2017-11-03T09:25:44.743Z,2160.00
2017-11-03T09:26:44.736Z,2115.00
2017-11-03T09:27:44.649Z,2261.25
2017-11-03T09:28:44.670Z,2148.75
2017-11-03T09:29:44.597Z,2019.38
2017-11-03T09:30:44.726Z,1946.25
2017-11-03T09:31:44.623Z,2165.63
2017-11-03T09:32:44.557Z,2205.00
2017-11-03T09:33:44.564Z,2036.25
2017-11-03T09:34:44.494Z,2244.38
2017-11-03T09:35:44.477Z,2401.88
2017-11-03T09:36:44.500Z,2216.25
2017-11-03T09:37:44.597Z,2193.75
2017-11-03T09:38:44.394Z,2205.00
2017-11-03T09:39:44.828Z,2058.75
2017-11-03T09:40:46.222Z,2160.00
2017-11-03T09:41:44.452Z,2148.75
2017-11-03T09:42:44.425Z,2120.63
2017-11-03T09:43:44.340Z,2205.00
2017-11-03T09:44:44.412Z,2238.75
2017-11-03T09:45:44.285Z,2503.13
2017-11-03T09:46:44.289Z,2593.13
2017-11-03T09:47:44.212Z,2261.25
2017-11-03T09:48:44.190Z,2075.63
2017-11-03T09:49:44.202Z,2244.38
2017-11-03T09:50:44.115Z,2227.50
2017-11-03T09:51:44.084Z,2086.88
2017-11-03T09:52:44.091Z,2300.63
2017-11-03T09:53:44.015Z,2441.25
2017-11-03T09:54:43.989Z,2435.63
2017-11-03T09:55:44.001Z,2497.50
2017-11-03T09:56:43.925Z,2356.88
2017-11-03T09:57:44.138Z,2210.63
2017-11-03T09:58:43.923Z,2435.63
2017-11-03T09:59:43.986Z,2368.13
2017-11-03T10:00:43.907Z,1456.88
2017-11-03T10:01:43.873Z,2621.25
2017-11-03T10:02:43.866Z,2536.88
2017-11-03T10:03:43.820Z,2396.25
2017-11-03T10:04:43.840Z,2368.13
2017-11-03T10:05:43.777Z,2064.38
2017-11-03T10:06:43.715Z,2536.88
2017-11-03T10:07:43.675Z,2300.63
2017-11-03T10:08:57.333Z,2092.50
2017-11-03T10:10:57.471Z,2452.50
2017-11-03T10:11:57.444Z,2115.00
2017-11-03T10:13:50.860Z,2570.63
2017-11-03T10:14:50.824Z,2947.50
2017-11-03T10:16:47.024Z,2503.13
2017-11-03T10:17:46.946Z,2424.38
2017-11-03T10:19:41.644Z,2694.38
2017-11-03T10:20:41.678Z,2733.75
2017-11-03T10:22:35.379Z,2508.75
2017-11-03T10:23:35.276Z,2463.75
2017-11-03T10:25:31.335Z,2649.38
2017-11-03T10:26:31.857Z,2761.88
2017-11-03T10:27:31.294Z,2750.63
2017-11-03T10:28:31.295Z,2604.38
2017-11-03T10:29:31.233Z,2964.38
2017-11-03T10:30:31.212Z,2885.63
2017-11-03T10:31:31.232Z,2812.50
2017-11-03T10:32:31.236Z,2711.25
2017-11-03T10:33:31.163Z,2480.63
2017-11-03T10:34:31.161Z,2469.38
2017-11-03T10:35:31.051Z,2626.88
2017-11-03T10:36:31.633Z,2728.13
2017-11-03T10:37:31.049Z,2728.13
2017-11-03T10:38:31.540Z,2351.25
2017-11-03T10:39:31.068Z,2643.75
2017-11-03T10:40:31.050Z,2733.75
2017-11-03T10:41:31.024Z,2643.75
2017-11-03T10:42:31.527Z,2520.00
2017-11-03T10:43:30.975Z,2570.63
2017-11-03T10:44:30.908Z,2548.13
2017-11-03T10:45:30.808Z,2677.50
2017-11-03T10:46:30.882Z,2655.00
2017-11-03T10:47:30.865Z,2705.63
2017-11-03T10:48:30.861Z,2756.25
2017-11-03T10:49:30.733Z,2874.38
2017-11-03T10:50:31.197Z,2767.50
2017-11-03T10:51:30.391Z,2401.88
2017-11-03T10:52:30.374Z,2373.75
2017-11-03T10:53:30.298Z,2565.00
2017-11-03T10:54:30.247Z,2373.75
2017-11-03T10:55:30.255Z,2553.75
2017-11-03T10:56:30.217Z,2739.38
2017-11-03T10:57:30.194Z,2587.50
2017-11-03T10:58:30.135Z,2435.63
2017-11-03T10:59:30.126Z,2424.38
2017-11-03T11:00:30.199Z,2615.63
2017-11-03T11:01:30.126Z,2655.00
2017-11-03T11:02:30.105Z,2593.13
2017-11-03T11:03:30.063Z,2531.25
2017-11-03T11:04:30.011Z,2823.75
2017-11-03T11:05:29.982Z,2756.25
2017-11-03T11:06:29.951Z,2626.88
2017-11-03T11:07:29.937Z,2610.00
2017-11-03T11:08:29.976Z,2565.00
2017-11-03T11:09:29.946Z,2750.63
2017-11-03T11:10:29.873Z,2598.75
2017-11-03T11:11:29.835Z,2593.13
2017-11-03T11:12:29.832Z,2553.75
2017-11-03T11:13:29.801Z,2570.63
2017-11-03T11:14:29.774Z,2722.50
2017-11-03T11:15:29.747Z,2722.50
2017-11-03T11:16:30.721Z,2739.38
2017-11-03T11:17:29.777Z,2649.38
2017-11-03T11:18:29.686Z,2570.63
2017-11-03T11:19:29.714Z,2739.38
2017-11-03T11:20:29.688Z,3026.25
2017-11-03T11:21:29.801Z,2941.88
2017-11-03T11:22:29.583Z,2688.75
2017-11-03T11:23:29.573Z,2559.38
2017-11-03T11:24:29.576Z,2593.13
2017-11-03T11:25:29.562Z,2621.25
2017-11-03T11:26:29.535Z,2621.25
2017-11-03T11:27:29.550Z,2525.63
2017-11-03T11:28:29.504Z,2593.13
2017-11-03T11:29:29.468Z,2773.13
2017-11-03T11:30:29.415Z,2542.50
2017-11-03T11:31:29.375Z,2503.13
2017-11-03T11:32:29.362Z,2418.75
2017-11-03T11:33:29.336Z,2604.38
2017-11-03T11:34:29.318Z,2638.13
2017-11-03T11:35:29.337Z,2745.00
2017-11-03T11:36:29.255Z,2733.75
2017-11-03T11:37:29.227Z,2790.00
2017-11-03T11:38:29.223Z,2761.88
2017-11-03T11:39:29.202Z,2401.88
2017-11-03T11:40:29.223Z,2441.25
2017-11-03T11:42:22.822Z,2413.13
2017-11-03T11:43:22.730Z,2413.13
2017-11-03T11:45:18.817Z,2368.13
2017-11-03T11:46:18.869Z,2469.38
2017-11-03T11:48:12.042Z,2565.00
2017-11-03T11:49:11.996Z,2548.13
2017-11-03T11:51:06.771Z,2199.38
2017-11-03T11:52:06.732Z,2413.13
2017-11-03T11:54:01.627Z,2317.50
2017-11-03T11:55:01.471Z,2576.25
2017-11-03T11:56:57.920Z,990.00
2017-11-03T11:57:57.759Z,978.75
2017-11-03T11:59:51.161Z,2486.25
2017-11-03T12:00:51.029Z,2750.63
2017-11-03T12:02:44.237Z,2368.13
2017-11-03T12:03:44.190Z,2441.25
2017-11-03T12:06:01.084Z,2565.00
2017-11-03T12:07:01.323Z,2514.38
2017-11-03T12:08:54.730Z,2390.63
2017-11-03T12:09:54.148Z,2503.13
2017-11-03T12:11:48.937Z,2424.38
2017-11-03T12:12:49.407Z,2278.13
2017-11-03T12:14:42.343Z,1400.63
2017-11-03T12:15:42.304Z,2013.75
2017-11-03T12:17:46.265Z,2368.13
2017-11-03T12:18:46.597Z,2508.75
2017-11-03T12:20:39.815Z,2311.88
2017-11-03T12:21:39.785Z,2244.38
2017-11-03T12:23:36.234Z,2272.50
2017-11-03T12:24:36.098Z,2143.13
2017-11-03T12:26:29.215Z,2306.25
2017-11-03T12:27:29.113Z,2188.13
2017-11-03T12:28:29.121Z,2233.13
2017-11-03T12:29:29.789Z,2165.63
2017-11-03T12:30:29.064Z,2030.63
2017-11-03T12:31:29.067Z,2266.88
2017-11-03T12:32:29.062Z,2328.75
2017-11-03T12:33:29.020Z,2176.88
2017-11-03T12:34:29.219Z,2143.13
2017-11-03T12:35:28.957Z,2176.88
2017-11-03T12:36:28.931Z,1777.50
2017-11-03T12:37:28.873Z,978.75
2017-11-03T12:38:28.811Z,1321.88
2017-11-03T12:39:28.914Z,1575.00
2017-11-03T12:40:28.783Z,2041.88
2017-11-03T12:41:28.823Z,1108.13
2017-11-03T12:42:28.668Z,1968.75
2017-11-03T12:43:28.383Z,1957.50
2017-11-03T12:44:28.364Z,2047.50
2017-11-03T12:45:28.273Z,1946.25
2017-11-03T12:46:28.315Z,2103.75
2017-11-03T12:47:28.247Z,2182.50
2017-11-03T12:48:28.277Z,2115.00
2017-11-03T12:49:28.287Z,2081.25
2017-11-03T12:50:28.143Z,2311.88
2017-11-03T12:51:28.271Z,2205.00
2017-11-03T12:52:28.108Z,2092.50
2017-11-03T12:53:28.102Z,2058.75
2017-11-03T12:54:28.040Z,2075.63
2017-11-03T12:55:28.103Z,2058.75
2017-11-03T12:56:28.077Z,2047.50
2017-11-03T12:57:27.959Z,2205.00
2017-11-03T12:58:28.018Z,2193.75
2017-11-03T12:59:27.913Z,2126.25
2017-11-03T13:00:30.738Z,1743.75
2017-11-03T13:01:27.989Z,1080.00
2017-11-03T13:02:28.045Z,866.25
2017-11-03T13:03:27.800Z,838.13
2017-11-03T13:04:27.803Z,877.50
2017-11-03T13:05:27.830Z,849.38
2017-11-03T13:06:27.714Z,860.63
2017-11-03T13:08:21.330Z,1271.25
2017-11-03T13:09:21.714Z,1535.63
2017-11-03T13:11:14.365Z,1665.00
2017-11-03T13:12:14.266Z,1704.38
2017-11-03T13:14:08.954Z,1462.50
2017-11-03T13:15:17.898Z,1260.00
2017-11-03T13:17:02.036Z,984.38
2017-11-03T13:18:02.260Z,832.50
2017-11-03T13:19:58.296Z,770.63
2017-11-03T13:20:58.634Z,748.13
2017-11-03T13:22:51.859Z,742.50
2017-11-03T13:24:07.281Z,866.25
2017-11-03T13:25:47.107Z,888.75
2017-11-03T13:26:47.049Z,765.00
2017-11-03T13:28:42.775Z,759.38
2017-11-03T13:29:40.184Z,753.75
2017-11-03T13:31:36.331Z,765.00
2017-11-03T13:32:36.774Z,765.00
2017-11-03T13:34:39.241Z,770.63
2017-11-03T13:35:39.119Z,759.38
2017-11-03T13:37:45.715Z,720.00
2017-11-03T13:38:35.153Z,703.13
2017-11-03T13:40:31.903Z,675.00
2017-11-03T13:41:43.130Z,658.13
2017-11-03T13:43:35.809Z,646.88
2017-11-03T13:44:30.782Z,641.25
2017-11-03T13:46:24.048Z,635.63
2017-11-03T13:47:24.498Z,630.00
2017-11-03T13:49:19.335Z,618.75
2017-11-03T13:50:19.248Z,613.13
2017-11-03T13:52:34.865Z,607.50
2017-11-03T13:53:19.914Z,601.88
2017-11-03T13:54:19.922Z,601.88